createdAt,value
2022-09-01T00:01:41.576Z,63.17
2022-09-01T00:10:07.630Z,63.26
2022-09-01T00:18:32.864Z,63.20
2022-09-01T00:26:56.322Z,63.22
2022-09-01T00:35:20.166Z,63.33
2022-09-01T00:43:52.469Z,63.51
2022-09-01T00:52:40.645Z,63.49
2022-09-01T01:01:05.652Z,63.29
2022-09-01T01:09:38.819Z,63.30
2022-09-01T01:18:01.671Z,63.34
2022-09-01T01:26:24.555Z,63.43
2022-09-01T01:34:48.851Z,63.46
2022-09-01T01:43:20.088Z,63.51
2022-09-01T01:51:44.105Z,63.45
2022-09-01T02:00:11.459Z,63.37
2022-09-01T02:08:37.310Z,63.39
2022-09-01T02:17:02.147Z,63.36
2022-09-01T02:25:28.218Z,63.36
2022-09-01T02:33:54.539Z,63.40
2022-09-01T02:42:17.549Z,63.48
2022-09-01T02:50:42.017Z,63.52
2022-09-01T02:59:05.862Z,63.42
2022-09-01T03:07:29.679Z,63.39
2022-09-01T03:15:52.462Z,63.50
2022-09-01T03:24:18.568Z,63.48
2022-09-01T03:32:42.175Z,63.53
2022-09-01T03:41:06.579Z,63.40
2022-09-01T03:49:29.669Z,63.41
2022-09-01T03:57:56.066Z,63.61
2022-09-01T04:06:24.236Z,63.67
2022-09-01T04:14:48.616Z,63.45
2022-09-01T04:23:11.434Z,63.62
2022-09-01T04:31:38.105Z,63.68
2022-09-01T04:40:01.909Z,63.77
2022-09-01T04:48:29.648Z,63.83
2022-09-01T04:56:55.085Z,64.12
2022-09-01T05:05:22.739Z,64.04
2022-09-01T05:13:48.552Z,64.21
2022-09-01T05:22:13.036Z,64.30
2022-09-01T05:30:41.200Z,64.93
2022-09-01T05:39:06.322Z,65.57
2022-09-01T05:47:29.446Z,65.84
2022-09-01T05:55:57.624Z,66.15
2022-09-01T06:04:20.650Z,66.18
2022-09-01T06:12:48.643Z,66.51
2022-09-01T06:21:17.115Z,66.65
2022-09-01T06:29:41.067Z,66.44
2022-09-01T06:38:04.971Z,66.20
2022-09-01T06:46:40.614Z,66.00
2022-09-01T06:55:07.631Z,65.93
2022-09-01T07:03:34.237Z,66.11
2022-09-01T07:12:26.633Z,66.06
2022-09-01T07:21:36.553Z,66.11
2022-09-01T07:29:39.386Z,66.25
2022-09-01T07:47:19.478Z,65.98
2022-09-01T07:55:36.405Z,66.08
2022-09-01T08:04:02.478Z,66.09
2022-09-01T08:12:28.847Z,65.96
2022-09-01T08:20:52.444Z,65.93
2022-09-01T08:29:20.634Z,66.14
2022-09-01T08:37:44.487Z,65.74
2022-09-01T08:46:30.713Z,65.97
2022-09-01T08:55:02.619Z,66.00
2022-09-01T09:03:47.672Z,65.97
2022-09-01T09:12:49.078Z,65.86
2022-09-01T09:21:22.941Z,65.89
2022-09-01T09:30:11.775Z,66.02
2022-09-01T09:38:34.786Z,65.96
2022-09-01T09:46:59.121Z,65.60
2022-09-01T09:55:30.370Z,65.40
2022-09-01T10:03:57.196Z,65.85
2022-09-01T10:12:20.420Z,65.82
2022-09-01T10:21:00.560Z,65.86
2022-09-01T10:29:47.413Z,65.61
2022-09-01T10:38:21.877Z,65.44
2022-09-01T10:46:50.778Z,65.53
2022-09-01T10:55:24.961Z,65.30
2022-09-01T11:03:57.044Z,65.30
2022-09-01T11:12:54.623Z,65.33
2022-09-01T11:21:30.970Z,65.43
2022-09-01T11:30:18.464Z,65.38
2022-09-01T11:39:19.298Z,65.29
2022-09-01T11:47:50.750Z,64.97
2022-09-01T11:56:27.250Z,64.99
2022-09-01T12:04:51.823Z,64.89
2022-09-01T12:13:21.993Z,64.60
2022-09-01T12:22:17.123Z,64.76
2022-09-01T12:30:42.491Z,64.71
2022-09-01T12:39:25.869Z,64.83
2022-09-01T12:47:51.411Z,64.67
2022-09-01T12:56:26.857Z,64.73
2022-09-01T13:04:49.821Z,64.39
2022-09-01T13:13:15.047Z,64.46
2022-09-01T13:30:00.945Z,64.35
2022-09-01T13:38:24.462Z,64.16
2022-09-01T13:55:34.225Z,64.08
2022-09-01T14:04:00.432Z,63.98
2022-09-01T14:12:24.500Z,63.79
2022-09-01T14:20:51.064Z,63.81
2022-09-01T14:29:14.218Z,63.62
2022-09-01T14:37:39.631Z,63.68
2022-09-01T14:46:08.318Z,63.49
2022-09-01T14:54:31.446Z,63.61
2022-09-01T15:02:56.505Z,63.37
2022-09-01T15:11:21.385Z,63.48
2022-09-01T15:19:44.344Z,63.42
2022-09-01T15:28:07.700Z,63.22
2022-09-01T15:36:32.234Z,63.17
2022-09-01T15:44:55.404Z,63.00
2022-09-01T15:53:19.600Z,63.25
2022-09-01T16:01:46.965Z,62.91
2022-09-01T16:10:13.346Z,62.73
2022-09-01T16:18:46.787Z,62.83
2022-09-01T16:27:14.972Z,62.48
2022-09-01T16:35:53.407Z,62.58
2022-09-01T16:44:24.398Z,62.41
2022-09-01T16:52:53.627Z,62.46
2022-09-01T17:01:30.822Z,62.19
2022-09-01T17:09:56.630Z,62.07
2022-09-01T17:18:40.230Z,61.88
2022-09-01T17:27:11.427Z,61.84
2022-09-01T17:35:34.355Z,61.84
2022-09-01T17:44:30.268Z,61.76
2022-09-01T17:53:22.464Z,61.49
2022-09-01T18:02:25.559Z,61.60
2022-09-01T18:10:55.458Z,61.38
2022-09-01T18:19:26.813Z,61.29
2022-09-01T18:27:50.804Z,61.12
2022-09-01T18:36:14.530Z,61.30
2022-09-01T18:45:09.893Z,61.17
2022-09-01T18:53:51.721Z,61.00
2022-09-01T19:02:27.087Z,60.85
2022-09-01T19:11:08.665Z,60.83
2022-09-01T19:19:51.865Z,60.82
2022-09-01T19:28:43.652Z,60.70
2022-09-01T19:37:10.923Z,60.77
2022-09-01T19:45:58.282Z,60.68
2022-09-01T19:54:34.074Z,60.73
2022-09-01T20:03:08.581Z,60.57
2022-09-01T20:11:55.730Z,60.45
2022-09-01T20:20:47.559Z,60.51
2022-09-01T20:29:21.923Z,60.58
2022-09-01T20:37:58.543Z,60.48
2022-09-01T20:46:23.780Z,60.60
2022-09-01T20:54:58.180Z,60.57
2022-09-01T21:03:54.461Z,60.64
2022-09-01T21:12:35.240Z,60.60
2022-09-01T21:21:12.187Z,60.52
2022-09-01T21:29:47.430Z,60.46
2022-09-01T21:38:11.246Z,60.46
2022-09-01T21:46:35.030Z,60.56
2022-09-01T21:54:57.889Z,60.43
2022-09-01T22:03:21.004Z,60.41
2022-09-01T22:11:45.162Z,60.57
2022-09-01T22:20:11.489Z,60.45
2022-09-01T22:28:35.632Z,60.38
2022-09-01T22:36:58.568Z,60.48
2022-09-01T22:45:21.459Z,60.44
2022-09-01T22:53:46.113Z,60.20
2022-09-01T23:02:11.220Z,60.35
2022-09-01T23:10:34.184Z,60.35
2022-09-01T23:18:57.143Z,60.51
2022-09-01T23:27:19.927Z,60.35
2022-09-01T23:35:52.565Z,60.27
2022-09-01T23:44:16.110Z,60.42
2022-09-01T23:52:40.012Z,60.39
